Terminal Aerodrome Forecast
Issued by NWS

Current Version | Previous Version | Text Only | Print | Product List | Glossary Off
Versions: 1 2 3 4 5 6 7 8 9 10 11 12 13 14 15 16 17 18 19 20 21 22 23 24 25 26

000
FTUS41 KPBZ 251400 AAA
TAFHLG
TAF AMD
KHLG 251432Z 2515/2612 21008KT 3SM BR OVC008
     FM251700 VRB03KT 2SM -SN OVC007
     FM252000 03005KT 3/4SM -SN OVC004=

USA.gov is the U.S. government's official web portal to all federal, state and local government web resources and services.